sensor_id;sensor_type;location;lat;lon;timestamp;P1;durP1;ratioP1;P2;durP2;ratioP2
81382;SDS011;70834;37.534;-122.308;2023-09-30T00:02:20;0.98;;;0.52;;
81382;SDS011;70834;37.534;-122.308;2023-09-30T00:04:41;0.95;;;0.52;;
81382;SDS011;70834;37.534;-122.308;2023-09-30T00:07:02;1.00;;;0.30;;
81382;SDS011;70834;37.534;-122.308;2023-09-30T00:09:25;0.77;;;0.40;;
81382;SDS011;70834;37.534;-122.308;2023-09-30T00:11:46;0.47;;;0.40;;
81382;SDS011;70834;37.534;-122.308;2023-09-30T00:14:08;0.70;;;0.40;;
81382;SDS011;70834;37.534;-122.308;2023-09-30T00:16:29;1.15;;;0.55;;
81382;SDS011;70834;37.534;-122.308;2023-09-30T00:18:51;0.52;;;0.30;;
81382;SDS011;70834;37.534;-122.308;2023-09-30T00:21:14;0.55;;;0.35;;
81382;SDS011;70834;37.534;-122.308;2023-09-30T00:23:35;1.05;;;0.52;;
81382;SDS011;70834;37.534;-122.308;2023-09-30T00:25:57;1.08;;;0.38;;
81382;SDS011;70834;37.534;-122.308;2023-09-30T00:28:18;0.43;;;0.30;;
81382;SDS011;70834;37.534;-122.308;2023-09-30T00:30:40;4.45;;;0.57;;
81382;SDS011;70834;37.534;-122.308;2023-09-30T00:33:01;1.58;;;0.70;;
81382;SDS011;70834;37.534;-122.308;2023-09-30T00:35:23;2.03;;;0.77;;
81382;SDS011;70834;37.534;-122.308;2023-09-30T00:37:44;2.35;;;0.90;;
81382;SDS011;70834;37.534;-122.308;2023-09-30T00:40:06;2.67;;;1.20;;
81382;SDS011;70834;37.534;-122.308;2023-09-30T00:42:38;3.47;;;1.00;;
81382;SDS011;70834;37.534;-122.308;2023-09-30T00:44:59;4.15;;;1.40;;
81382;SDS011;70834;37.534;-122.308;2023-09-30T00:47:21;3.10;;;1.25;;
81382;SDS011;70834;37.534;-122.308;2023-09-30T00:49:43;3.05;;;1.23;;
81382;SDS011;70834;37.534;-122.308;2023-09-30T00:52:04;3.67;;;1.10;;
81382;SDS011;70834;37.534;-122.308;2023-09-30T00:54:26;4.88;;;1.88;;
81382;SDS011;70834;37.534;-122.308;2023-09-30T00:56:48;3.45;;;0.98;;
81382;SDS011;70834;37.534;-122.308;2023-09-30T00:59:12;5.70;;;1.45;;
81382;SDS011;70834;37.534;-122.308;2023-09-30T01:01:34;5.25;;;1.45;;
81382;SDS011;70834;37.534;-122.308;2023-09-30T01:03:56;7.00;;;1.80;;
81382;SDS011;70834;37.534;-122.308;2023-09-30T01:06:19;7.70;;;1.58;;
81382;SDS011;70834;37.534;-122.308;2023-09-30T01:08:40;3.78;;;1.13;;
81382;SDS011;70834;37.534;-122.308;2023-09-30T01:11:02;7.00;;;1.27;;
81382;SDS011;70834;37.534;-122.308;2023-09-30T01:13:31;6.70;;;1.08;;
81382;SDS011;70834;37.534;-122.308;2023-09-30T01:15:54;5.80;;;1.20;;
81382;SDS011;70834;37.534;-122.308;2023-09-30T01:18:16;6.95;;;1.45;;
81382;SDS011;70834;37.534;-122.308;2023-09-30T01:20:37;5.88;;;1.38;;
81382;SDS011;70834;37.534;-122.308;2023-09-30T01:22:59;4.85;;;1.98;;
81382;SDS011;70834;37.534;-122.308;2023-09-30T01:25:23;6.22;;;1.40;;
81382;SDS011;70834;37.534;-122.308;2023-09-30T01:27:48;8.45;;;2.15;;
81382;SDS011;70834;37.534;-122.308;2023-09-30T01:30:11;5.95;;;1.52;;
81382;SDS011;70834;37.534;-122.308;2023-09-30T01:32:33;7.70;;;1.52;;
81382;SDS011;70834;37.534;-122.308;2023-09-30T01:34:55;4.65;;;1.40;;
81382;SDS011;70834;37.534;-122.308;2023-09-30T01:37:17;6.68;;;1.17;;
81382;SDS011;70834;37.534;-122.308;2023-09-30T01:39:38;4.82;;;1.25;;
81382;SDS011;70834;37.534;-122.308;2023-09-30T01:41:59;4.88;;;1.52;;
81382;SDS011;70834;37.534;-122.308;2023-09-30T01:44:21;5.43;;;1.60;;
81382;SDS011;70834;37.534;-122.308;2023-09-30T01:46:42;5.80;;;1.40;;
81382;SDS011;70834;37.534;-122.308;2023-09-30T01:49:04;5.65;;;1.70;;
81382;SDS011;70834;37.534;-122.308;2023-09-30T01:51:25;6.13;;;2.35;;
81382;SDS011;70834;37.534;-122.308;2023-09-30T01:53:48;5.85;;;1.40;;
81382;SDS011;70834;37.534;-122.308;2023-09-30T01:56:09;4.38;;;1.38;;
81382;SDS011;70834;37.534;-122.308;2023-09-30T01:58:31;6.57;;;1.73;;
81382;SDS011;70834;37.534;-122.308;2023-09-30T02:00:52;10.07;;;2.15;;
81382;SDS011;70834;37.534;-122.308;2023-09-30T02:03:14;6.13;;;2.35;;
81382;SDS011;70834;37.534;-122.308;2023-09-30T02:05:35;8.27;;;1.42;;
81382;SDS011;70834;37.534;-122.308;2023-09-30T02:07:58;6.35;;;1.60;;
81382;SDS011;70834;37.534;-122.308;2023-09-30T02:10:20;5.82;;;1.48;;
81382;SDS011;70834;37.534;-122.308;2023-09-30T02:12:42;5.68;;;1.48;;
81382;SDS011;70834;37.534;-122.308;2023-09-30T02:15:03;6.50;;;1.33;;
81382;SDS011;70834;37.534;-122.308;2023-09-30T02:17:27;3.80;;;1.20;;
81382;SDS011;70834;37.534;-122.308;2023-09-30T02:19:48;6.18;;;1.15;;
81382;SDS011;70834;37.534;-122.308;2023-09-30T02:22:10;6.90;;;1.73;;
81382;SDS011;70834;37.534;-122.308;2023-09-30T02:24:32;5.68;;;1.67;;
81382;SDS011;70834;37.534;-122.308;2023-09-30T02:26:53;7.95;;;1.80;;
81382;SDS011;70834;37.534;-122.308;2023-09-30T02:29:15;4.03;;;1.92;;
81382;SDS011;70834;37.534;-122.308;2023-09-30T02:31:36;7.55;;;1.63;;
81382;SDS011;70834;37.534;-122.308;2023-09-30T02:33:58;6.90;;;1.20;;
81382;SDS011;70834;37.534;-122.308;2023-09-30T02:36:19;4.35;;;1.30;;
81382;SDS011;70834;37.534;-122.308;2023-09-30T02:38:41;8.57;;;1.60;;
81382;SDS011;70834;37.534;-122.308;2023-09-30T02:41:03;4.82;;;1.45;;
81382;SDS011;70834;37.534;-122.308;2023-09-30T02:43:25;5.45;;;1.30;;
81382;SDS011;70834;37.534;-122.308;2023-09-30T02:45:47;4.85;;;1.23;;
81382;SDS011;70834;37.534;-122.308;2023-09-30T02:48:09;9.18;;;1.25;;
81382;SDS011;70834;37.534;-122.308;2023-09-30T02:50:30;6.97;;;2.47;;
81382;SDS011;70834;37.534;-122.308;2023-09-30T02:52:51;7.82;;;1.05;;
81382;SDS011;70834;37.534;-122.308;2023-09-30T02:55:13;6.20;;;1.40;;
81382;SDS011;70834;37.534;-122.308;2023-09-30T02:57:34;5.95;;;1.55;;
81382;SDS011;70834;37.534;-122.308;2023-09-30T03:00:01;3.67;;;1.10;;
81382;SDS011;70834;37.534;-122.308;2023-09-30T03:05:04;8.27;;;1.25;;
81382;SDS011;70834;37.534;-122.308;2023-09-30T03:07:30;6.97;;;1.73;;
81382;SDS011;70834;37.534;-122.308;2023-09-30T03:10:01;7.65;;;2.45;;
81382;SDS011;70834;37.534;-122.308;2023-09-30T03:12:26;6.95;;;1.00;;
81382;SDS011;70834;37.534;-122.308;2023-09-30T03:14:51;6.55;;;1.52;;
81382;SDS011;70834;37.534;-122.308;2023-09-30T03:17:27;5.75;;;1.95;;
81382;SDS011;70834;37.534;-122.308;2023-09-30T03:20:08;5.78;;;1.50;;
81382;SDS011;70834;37.534;-122.308;2023-09-30T03:22:34;5.07;;;1.33;;
81382;SDS011;70834;37.534;-122.308;2023-09-30T03:24:56;6.88;;;1.70;;
81382;SDS011;70834;37.534;-122.308;2023-09-30T03:27:18;5.20;;;1.20;;
81382;SDS011;70834;37.534;-122.308;2023-09-30T03:29:40;6.15;;;1.30;;
81382;SDS011;70834;37.534;-122.308;2023-09-30T03:32:01;4.35;;;1.40;;
81382;SDS011;70834;37.534;-122.308;2023-09-30T03:34:23;6.57;;;1.40;;
81382;SDS011;70834;37.534;-122.308;2023-09-30T03:36:44;5.97;;;1.33;;
81382;SDS011;70834;37.534;-122.308;2023-09-30T03:39:06;6.93;;;1.30;;
81382;SDS011;70834;37.534;-122.308;2023-09-30T03:41:33;6.93;;;2.00;;
81382;SDS011;70834;37.534;-122.308;2023-09-30T03:43:57;5.15;;;1.40;;
81382;SDS011;70834;37.534;-122.308;2023-09-30T03:46:18;7.43;;;1.42;;
81382;SDS011;70834;37.534;-122.308;2023-09-30T03:48:40;10.00;;;1.67;;
81382;SDS011;70834;37.534;-122.308;2023-09-30T03:51:09;8.13;;;1.75;;
81382;SDS011;70834;37.534;-122.308;2023-09-30T03:53:34;10.85;;;2.60;;
81382;SDS011;70834;37.534;-122.308;2023-09-30T03:55:56;6.63;;;1.63;;
81382;SDS011;70834;37.534;-122.308;2023-09-30T03:58:20;10.32;;;2.25;;
81382;SDS011;70834;37.534;-122.308;2023-09-30T04:00:44;5.22;;;1.60;;
81382;SDS011;70834;37.534;-122.308;2023-09-30T04:03:12;8.18;;;1.90;;
81382;SDS011;70834;37.534;-122.308;2023-09-30T04:05:33;5.40;;;1.48;;
81382;SDS011;70834;37.534;-122.308;2023-09-30T04:07:57;7.63;;;1.95;;
81382;SDS011;70834;37.534;-122.308;2023-09-30T04:10:18;14.10;;;2.25;;
81382;SDS011;70834;37.534;-122.308;2023-09-30T04:12:39;11.68;;;2.65;;
81382;SDS011;70834;37.534;-122.308;2023-09-30T04:15:01;9.20;;;2.00;;
81382;SDS011;70834;37.534;-122.308;2023-09-30T04:17:24;9.60;;;2.38;;
81382;SDS011;70834;37.534;-122.308;2023-09-30T04:19:47;6.03;;;1.85;;
81382;SDS011;70834;37.534;-122.308;2023-09-30T04:22:12;8.73;;;2.20;;
81382;SDS011;70834;37.534;-122.308;2023-09-30T04:24:34;9.02;;;2.42;;
81382;SDS011;70834;37.534;-122.308;2023-09-30T04:26:55;10.55;;;1.98;;
81382;SDS011;70834;37.534;-122.308;2023-09-30T04:29:22;8.63;;;1.85;;
81382;SDS011;70834;37.534;-122.308;2023-09-30T04:31:44;9.50;;;2.55;;
81382;SDS011;70834;37.534;-122.308;2023-09-30T04:34:07;10.05;;;2.65;;
81382;SDS011;70834;37.534;-122.308;2023-09-30T04:36:28;7.40;;;1.45;;
81382;SDS011;70834;37.534;-122.308;2023-09-30T04:38:51;10.07;;;2.25;;
81382;SDS011;70834;37.534;-122.308;2023-09-30T04:41:12;11.20;;;1.90;;
81382;SDS011;70834;37.534;-122.308;2023-09-30T04:43:34;7.72;;;1.80;;
81382;SDS011;70834;37.534;-122.308;2023-09-30T04:45:58;13.70;;;2.58;;
81382;SDS011;70834;37.534;-122.308;2023-09-30T04:48:19;10.13;;;2.55;;
81382;SDS011;70834;37.534;-122.308;2023-09-30T04:50:41;9.13;;;2.15;;
81382;SDS011;70834;37.534;-122.308;2023-09-30T04:53:02;7.57;;;2.00;;
81382;SDS011;70834;37.534;-122.308;2023-09-30T04:55:24;7.47;;;1.77;;
81382;SDS011;70834;37.534;-122.308;2023-09-30T04:57:46;9.60;;;2.75;;
81382;SDS011;70834;37.534;-122.308;2023-09-30T05:00:08;10.05;;;2.08;;
81382;SDS011;70834;37.534;-122.308;2023-09-30T05:02:32;7.35;;;2.08;;
81382;SDS011;70834;37.534;-122.308;2023-09-30T05:04:53;7.72;;;1.90;;
81382;SDS011;70834;37.534;-122.308;2023-09-30T05:07:15;5.70;;;2.03;;
81382;SDS011;70834;37.534;-122.308;2023-09-30T05:09:36;15.15;;;3.63;;
81382;SDS011;70834;37.534;-122.308;2023-09-30T05:11:58;10.10;;;2.50;;
81382;SDS011;70834;37.534;-122.308;2023-09-30T05:14:19;7.20;;;2.38;;
81382;SDS011;70834;37.534;-122.308;2023-09-30T05:16:41;10.98;;;2.95;;
81382;SDS011;70834;37.534;-122.308;2023-09-30T05:19:04;8.77;;;2.40;;
81382;SDS011;70834;37.534;-122.308;2023-09-30T05:21:25;11.07;;;2.47;;
81382;SDS011;70834;37.534;-122.308;2023-09-30T05:23:47;8.68;;;2.17;;
81382;SDS011;70834;37.534;-122.308;2023-09-30T05:26:09;10.23;;;2.25;;
81382;SDS011;70834;37.534;-122.308;2023-09-30T05:28:32;7.88;;;2.25;;
81382;SDS011;70834;37.534;-122.308;2023-09-30T05:30:55;13.63;;;2.67;;
81382;SDS011;70834;37.534;-122.308;2023-09-30T05:33:16;12.60;;;2.67;;
81382;SDS011;70834;37.534;-122.308;2023-09-30T05:35:38;12.50;;;2.50;;
81382;SDS011;70834;37.534;-122.308;2023-09-30T05:38:03;8.68;;;2.63;;
81382;SDS011;70834;37.534;-122.308;2023-09-30T05:53:41;11.68;;;1.98;;
81382;SDS011;70834;37.534;-122.308;2023-09-30T05:56:03;7.22;;;1.98;;
81382;SDS011;70834;37.534;-122.308;2023-09-30T05:58:24;10.75;;;2.22;;
81382;SDS011;70834;37.534;-122.308;2023-09-30T06:00:49;9.50;;;1.95;;
81382;SDS011;70834;37.534;-122.308;2023-09-30T06:03:11;11.27;;;2.00;;
81382;SDS011;70834;37.534;-122.308;2023-09-30T06:05:33;10.50;;;2.35;;
81382;SDS011;70834;37.534;-122.308;2023-09-30T06:07:54;14.55;;;2.35;;
81382;SDS011;70834;37.534;-122.308;2023-09-30T06:10:16;8.57;;;1.80;;
81382;SDS011;70834;37.534;-122.308;2023-09-30T06:12:40;13.05;;;3.25;;
81382;SDS011;70834;37.534;-122.308;2023-09-30T06:15:02;11.38;;;2.20;;
81382;SDS011;70834;37.534;-122.308;2023-09-30T06:17:23;10.00;;;1.80;;
81382;SDS011;70834;37.534;-122.308;2023-09-30T06:19:45;6.93;;;1.90;;
81382;SDS011;70834;37.534;-122.308;2023-09-30T06:22:07;10.63;;;2.03;;
81382;SDS011;70834;37.534;-122.308;2023-09-30T06:24:28;11.15;;;2.40;;
81382;SDS011;70834;37.534;-122.308;2023-09-30T06:26:50;9.18;;;2.33;;
81382;SDS011;70834;37.534;-122.308;2023-09-30T06:29:11;12.05;;;2.42;;
81382;SDS011;70834;37.534;-122.308;2023-09-30T06:31:33;11.55;;;2.30;;
81382;SDS011;70834;37.534;-122.308;2023-09-30T06:33:54;17.80;;;3.22;;
81382;SDS011;70834;37.534;-122.308;2023-09-30T06:36:18;10.35;;;2.25;;
81382;SDS011;70834;37.534;-122.308;2023-09-30T06:38:41;12.40;;;2.30;;
81382;SDS011;70834;37.534;-122.308;2023-09-30T06:41:04;12.27;;;3.58;;
81382;SDS011;70834;37.534;-122.308;2023-09-30T06:43:25;12.40;;;3.22;;
81382;SDS011;70834;37.534;-122.308;2023-09-30T06:45:48;9.05;;;2.80;;
81382;SDS011;70834;37.534;-122.308;2023-09-30T06:48:09;9.13;;;2.67;;
81382;SDS011;70834;37.534;-122.308;2023-09-30T06:50:35;10.95;;;2.30;;
81382;SDS011;70834;37.534;-122.308;2023-09-30T06:52:56;11.52;;;2.22;;
81382;SDS011;70834;37.534;-122.308;2023-09-30T06:55:18;13.07;;;3.13;;
81382;SDS011;70834;37.534;-122.308;2023-09-30T06:57:39;14.35;;;2.72;;
81382;SDS011;70834;37.534;-122.308;2023-09-30T07:00:01;6.65;;;1.52;;
81382;SDS011;70834;37.534;-122.308;2023-09-30T07:02:29;9.95;;;2.67;;
81382;SDS011;70834;37.534;-122.308;2023-09-30T07:04:51;7.88;;;1.80;;
81382;SDS011;70834;37.534;-122.308;2023-09-30T07:07:13;9.38;;;2.42;;
81382;SDS011;70834;37.534;-122.308;2023-09-30T07:09:35;9.48;;;1.80;;
81382;SDS011;70834;37.534;-122.308;2023-09-30T07:11:57;10.80;;;2.13;;
81382;SDS011;70834;37.534;-122.308;2023-09-30T07:14:18;11.13;;;2.63;;
81382;SDS011;70834;37.534;-122.308;2023-09-30T07:16:39;13.32;;;2.35;;
81382;SDS011;70834;37.534;-122.308;2023-09-30T07:19:01;6.80;;;2.28;;
81382;SDS011;70834;37.534;-122.308;2023-09-30T07:21:23;8.68;;;1.73;;
81382;SDS011;70834;37.534;-122.308;2023-09-30T07:23:45;6.38;;;1.50;;
81382;SDS011;70834;37.534;-122.308;2023-09-30T07:26:06;8.45;;;2.40;;
81382;SDS011;70834;37.534;-122.308;2023-09-30T07:28:27;10.80;;;2.15;;
81382;SDS011;70834;37.534;-122.308;2023-09-30T07:30:49;11.05;;;2.72;;
81382;SDS011;70834;37.534;-122.308;2023-09-30T07:33:11;12.63;;;3.65;;
81382;SDS011;70834;37.534;-122.308;2023-09-30T07:35:33;12.63;;;4.25;;
81382;SDS011;70834;37.534;-122.308;2023-09-30T07:37:54;10.05;;;1.77;;
81382;SDS011;70834;37.534;-122.308;2023-09-30T07:40:16;7.82;;;2.40;;
81382;SDS011;70834;37.534;-122.308;2023-09-30T07:42:37;7.80;;;1.80;;
81382;SDS011;70834;37.534;-122.308;2023-09-30T07:44:58;6.55;;;2.38;;
81382;SDS011;70834;37.534;-122.308;2023-09-30T07:47:20;5.93;;;1.65;;
81382;SDS011;70834;37.534;-122.308;2023-09-30T07:49:41;7.93;;;2.17;;
81382;SDS011;70834;37.534;-122.308;2023-09-30T07:52:03;8.63;;;1.83;;
81382;SDS011;70834;37.534;-122.308;2023-09-30T07:54:25;4.47;;;1.30;;
81382;SDS011;70834;37.534;-122.308;2023-09-30T07:56:46;10.80;;;1.55;;
81382;SDS011;70834;37.534;-122.308;2023-09-30T07:59:09;5.53;;;1.48;;
81382;SDS011;70834;37.534;-122.308;2023-09-30T08:01:33;7.10;;;1.85;;
81382;SDS011;70834;37.534;-122.308;2023-09-30T08:03:55;11.35;;;2.60;;
81382;SDS011;70834;37.534;-122.308;2023-09-30T08:06:16;11.57;;;2.28;;
81382;SDS011;70834;37.534;-122.308;2023-09-30T08:08:38;9.45;;;2.65;;
81382;SDS011;70834;37.534;-122.308;2023-09-30T08:10:59;5.10;;;1.80;;
81382;SDS011;70834;37.534;-122.308;2023-09-30T08:13:22;7.00;;;1.77;;
81382;SDS011;70834;37.534;-122.308;2023-09-30T08:15:43;9.48;;;2.10;;
81382;SDS011;70834;37.534;-122.308;2023-09-30T08:18:05;8.77;;;2.28;;
81382;SDS011;70834;37.534;-122.308;2023-09-30T08:20:28;8.27;;;1.65;;
81382;SDS011;70834;37.534;-122.308;2023-09-30T08:22:50;7.50;;;1.50;;
81382;SDS011;70834;37.534;-122.308;2023-09-30T08:25:12;6.88;;;1.88;;
81382;SDS011;70834;37.534;-122.308;2023-09-30T08:27:34;4.85;;;1.38;;
81382;SDS011;70834;37.534;-122.308;2023-09-30T08:29:56;4.82;;;1.20;;
81382;SDS011;70834;37.534;-122.308;2023-09-30T08:32:18;4.93;;;1.30;;
81382;SDS011;70834;37.534;-122.308;2023-09-30T08:34:39;3.70;;;1.10;;
81382;SDS011;70834;37.534;-122.308;2023-09-30T08:37:01;3.95;;;0.75;;
81382;SDS011;70834;37.534;-122.308;2023-09-30T08:39:22;2.75;;;0.82;;
81382;SDS011;70834;37.534;-122.308;2023-09-30T08:41:44;6.35;;;1.13;;
81382;SDS011;70834;37.534;-122.308;2023-09-30T08:44:06;3.20;;;0.82;;
81382;SDS011;70834;37.534;-122.308;2023-09-30T08:46:31;3.65;;;0.88;;
81382;SDS011;70834;37.534;-122.308;2023-09-30T08:48:54;6.15;;;1.60;;
81382;SDS011;70834;37.534;-122.308;2023-09-30T08:51:18;6.50;;;1.35;;
81382;SDS011;70834;37.534;-122.308;2023-09-30T08:53:39;4.68;;;1.70;;
81382;SDS011;70834;37.534;-122.308;2023-09-30T08:56:02;5.47;;;2.35;;
81382;SDS011;70834;37.534;-122.308;2023-09-30T08:58:29;2.65;;;1.20;;
81382;SDS011;70834;37.534;-122.308;2023-09-30T09:00:52;6.80;;;1.83;;
81382;SDS011;70834;37.534;-122.308;2023-09-30T09:03:14;4.38;;;2.00;;
81382;SDS011;70834;37.534;-122.308;2023-09-30T09:05:35;5.10;;;1.88;;
81382;SDS011;70834;37.534;-122.308;2023-09-30T09:07:57;4.43;;;1.75;;
81382;SDS011;70834;37.534;-122.308;2023-09-30T09:10:18;10.73;;;2.95;;
81382;SDS011;70834;37.534;-122.308;2023-09-30T09:12:40;6.78;;;2.47;;
81382;SDS011;70834;37.534;-122.308;2023-09-30T09:15:03;6.88;;;2.50;;
81382;SDS011;70834;37.534;-122.308;2023-09-30T09:17:40;6.93;;;2.08;;
81382;SDS011;70834;37.534;-122.308;2023-09-30T09:20:03;7.03;;;2.33;;
81382;SDS011;70834;37.534;-122.308;2023-09-30T09:22:25;10.05;;;2.30;;
81382;SDS011;70834;37.534;-122.308;2023-09-30T09:25:02;7.13;;;2.28;;
81382;SDS011;70834;37.534;-122.308;2023-09-30T09:27:23;10.05;;;2.67;;
81382;SDS011;70834;37.534;-122.308;2023-09-30T09:29:45;5.30;;;2.30;;
81382;SDS011;70834;37.534;-122.308;2023-09-30T09:32:24;11.00;;;2.58;;
81382;SDS011;70834;37.534;-122.308;2023-09-30T09:34:48;7.93;;;3.20;;
81382;SDS011;70834;37.534;-122.308;2023-09-30T09:37:21;8.75;;;2.67;;
81382;SDS011;70834;37.534;-122.308;2023-09-30T09:39:50;9.50;;;2.45;;
81382;SDS011;70834;37.534;-122.308;2023-09-30T09:42:30;8.85;;;2.65;;
81382;SDS011;70834;37.534;-122.308;2023-09-30T09:45:04;11.27;;;2.75;;
81382;SDS011;70834;37.534;-122.308;2023-09-30T09:47:26;12.23;;;2.55;;
81382;SDS011;70834;37.534;-122.308;2023-09-30T09:49:52;8.18;;;2.25;;
81382;SDS011;70834;37.534;-122.308;2023-09-30T09:52:14;10.32;;;2.03;;
81382;SDS011;70834;37.534;-122.308;2023-09-30T09:54:37;8.70;;;2.90;;
81382;SDS011;70834;37.534;-122.308;2023-09-30T09:57:01;9.98;;;2.45;;
81382;SDS011;70834;37.534;-122.308;2023-09-30T09:59:24;7.80;;;2.38;;
81382;SDS011;70834;37.534;-122.308;2023-09-30T10:01:46;8.93;;;2.47;;
81382;SDS011;70834;37.534;-122.308;2023-09-30T10:04:12;8.82;;;2.30;;
81382;SDS011;70834;37.534;-122.308;2023-09-30T10:06:35;8.35;;;2.85;;
81382;SDS011;70834;37.534;-122.308;2023-09-30T10:09:00;8.27;;;2.00;;
81382;SDS011;70834;37.534;-122.308;2023-09-30T10:11:21;4.13;;;1.77;;
81382;SDS011;70834;37.534;-122.308;2023-09-30T10:13:50;7.32;;;2.00;;
81382;SDS011;70834;37.534;-122.308;2023-09-30T10:16:46;9.93;;;2.35;;
81382;SDS011;70834;37.534;-122.308;2023-09-30T10:24:40;8.02;;;1.70;;
81382;SDS011;70834;37.534;-122.308;2023-09-30T10:35:17;6.90;;;2.08;;
81382;SDS011;70834;37.534;-122.308;2023-09-30T10:37:39;6.75;;;1.73;;
81382;SDS011;70834;37.534;-122.308;2023-09-30T10:40:00;7.75;;;2.05;;
81382;SDS011;70834;37.534;-122.308;2023-09-30T10:48:10;6.88;;;1.55;;
81382;SDS011;70834;37.534;-122.308;2023-09-30T10:50:49;8.00;;;1.60;;
81382;SDS011;70834;37.534;-122.308;2023-09-30T10:53:11;5.20;;;1.45;;
81382;SDS011;70834;37.534;-122.308;2023-09-30T10:55:34;8.52;;;1.73;;
81382;SDS011;70834;37.534;-122.308;2023-09-30T10:57:55;7.57;;;2.25;;
81382;SDS011;70834;37.534;-122.308;2023-09-30T11:00:17;6.55;;;1.25;;
81382;SDS011;70834;37.534;-122.308;2023-09-30T11:02:49;4.43;;;1.55;;
81382;SDS011;70834;37.534;-122.308;2023-09-30T11:05:11;7.47;;;1.25;;
81382;SDS011;70834;37.534;-122.308;2023-09-30T11:07:34;7.80;;;1.80;;
81382;SDS011;70834;37.534;-122.308;2023-09-30T11:10:00;7.85;;;1.70;;
81382;SDS011;70834;37.534;-122.308;2023-09-30T11:12:22;6.05;;;1.20;;
81382;SDS011;70834;37.534;-122.308;2023-09-30T11:14:43;7.32;;;2.17;;
81382;SDS011;70834;37.534;-122.308;2023-09-30T11:17:05;7.10;;;1.95;;
81382;SDS011;70834;37.534;-122.308;2023-09-30T11:19:27;5.88;;;1.65;;
81382;SDS011;70834;37.534;-122.308;2023-09-30T11:22:06;8.48;;;1.50;;
81382;SDS011;70834;37.534;-122.308;2023-09-30T11:24:28;6.78;;;1.90;;
81382;SDS011;70834;37.534;-122.308;2023-09-30T11:26:52;7.40;;;1.98;;
81382;SDS011;70834;37.534;-122.308;2023-09-30T11:29:16;4.10;;;1.38;;
81382;SDS011;70834;37.534;-122.308;2023-09-30T11:31:38;6.57;;;1.52;;
81382;SDS011;70834;37.534;-122.308;2023-09-30T11:34:00;5.45;;;1.55;;
81382;SDS011;70834;37.534;-122.308;2023-09-30T11:36:24;9.38;;;1.52;;
81382;SDS011;70834;37.534;-122.308;2023-09-30T11:38:46;9.82;;;1.70;;
81382;SDS011;70834;37.534;-122.308;2023-09-30T11:41:09;7.57;;;1.83;;
81382;SDS011;70834;37.534;-122.308;2023-09-30T11:43:31;9.27;;;1.70;;
81382;SDS011;70834;37.534;-122.308;2023-09-30T11:46:09;5.97;;;1.30;;
81382;SDS011;70834;37.534;-122.308;2023-09-30T11:48:31;11.27;;;2.85;;
81382;SDS011;70834;37.534;-122.308;2023-09-30T11:50:53;5.47;;;1.20;;
81382;SDS011;70834;37.534;-122.308;2023-09-30T11:53:16;8.27;;;1.38;;
81382;SDS011;70834;37.534;-122.308;2023-09-30T11:55:40;4.38;;;1.20;;
81382;SDS011;70834;37.534;-122.308;2023-09-30T11:58:03;7.43;;;1.10;;
81382;SDS011;70834;37.534;-122.308;2023-09-30T12:00:24;5.68;;;1.38;;
81382;SDS011;70834;37.534;-122.308;2023-09-30T12:02:45;6.72;;;1.00;;
81382;SDS011;70834;37.534;-122.308;2023-09-30T12:05:07;8.00;;;1.20;;
81382;SDS011;70834;37.534;-122.308;2023-09-30T12:07:31;7.50;;;1.20;;
81382;SDS011;70834;37.534;-122.308;2023-09-30T12:09:53;8.30;;;1.10;;
81382;SDS011;70834;37.534;-122.308;2023-09-30T12:12:14;7.15;;;1.63;;
81382;SDS011;70834;37.534;-122.308;2023-09-30T12:14:36;4.57;;;1.48;;
81382;SDS011;70834;37.534;-122.308;2023-09-30T12:16:58;5.78;;;1.23;;
81382;SDS011;70834;37.534;-122.308;2023-09-30T12:19:19;7.07;;;0.88;;
81382;SDS011;70834;37.534;-122.308;2023-09-30T12:21:42;2.85;;;0.82;;
81382;SDS011;70834;37.534;-122.308;2023-09-30T12:24:06;7.47;;;1.48;;
81382;SDS011;70834;37.534;-122.308;2023-09-30T12:26:32;2.22;;;0.90;;
81382;SDS011;70834;37.534;-122.308;2023-09-30T12:28:53;2.60;;;1.10;;
81382;SDS011;70834;37.534;-122.308;2023-09-30T12:31:16;3.03;;;1.58;;
81382;SDS011;70834;37.534;-122.308;2023-09-30T12:33:38;2.60;;;0.90;;
81382;SDS011;70834;37.534;-122.308;2023-09-30T12:36:00;6.10;;;1.50;;
81382;SDS011;70834;37.534;-122.308;2023-09-30T12:38:22;4.03;;;1.10;;
81382;SDS011;70834;37.534;-122.308;2023-09-30T12:40:43;3.50;;;1.08;;
81382;SDS011;70834;37.534;-122.308;2023-09-30T12:43:05;4.78;;;1.10;;
81382;SDS011;70834;37.534;-122.308;2023-09-30T12:45:27;4.47;;;1.17;;
81382;SDS011;70834;37.534;-122.308;2023-09-30T12:47:48;4.35;;;0.88;;
81382;SDS011;70834;37.534;-122.308;2023-09-30T12:50:12;3.35;;;0.70;;
81382;SDS011;70834;37.534;-122.308;2023-09-30T12:52:34;2.75;;;1.10;;
81382;SDS011;70834;37.534;-122.308;2023-09-30T12:54:56;4.82;;;1.50;;
81382;SDS011;70834;37.534;-122.308;2023-09-30T12:57:17;3.72;;;1.10;;
81382;SDS011;70834;37.534;-122.308;2023-09-30T12:59:39;3.83;;;1.10;;
81382;SDS011;70834;37.534;-122.308;2023-09-30T13:02:01;4.95;;;1.70;;
81382;SDS011;70834;37.534;-122.308;2023-09-30T13:04:25;7.78;;;2.08;;
81382;SDS011;70834;37.534;-122.308;2023-09-30T13:06:47;4.88;;;1.60;;
81382;SDS011;70834;37.534;-122.308;2023-09-30T13:09:10;11.65;;;3.08;;
81382;SDS011;70834;37.534;-122.308;2023-09-30T13:11:32;11.10;;;3.30;;
81382;SDS011;70834;37.534;-122.308;2023-09-30T13:13:53;14.30;;;3.55;;
81382;SDS011;70834;37.534;-122.308;2023-09-30T13:16:15;15.80;;;5.05;;
81382;SDS011;70834;37.534;-122.308;2023-09-30T13:18:36;20.73;;;5.05;;
81382;SDS011;70834;37.534;-122.308;2023-09-30T13:20:58;19.35;;;6.25;;
81382;SDS011;70834;37.534;-122.308;2023-09-30T13:23:20;16.98;;;4.93;;
81382;SDS011;70834;37.534;-122.308;2023-09-30T13:25:41;17.20;;;5.93;;
81382;SDS011;70834;37.534;-122.308;2023-09-30T13:28:03;21.27;;;6.60;;
81382;SDS011;70834;37.534;-122.308;2023-09-30T13:30:24;23.42;;;7.30;;
81382;SDS011;70834;37.534;-122.308;2023-09-30T13:32:46;31.58;;;8.95;;
81382;SDS011;70834;37.534;-122.308;2023-09-30T13:35:07;25.52;;;8.80;;
81382;SDS011;70834;37.534;-122.308;2023-09-30T13:37:29;34.05;;;9.07;;
81382;SDS011;70834;37.534;-122.308;2023-09-30T13:39:53;29.38;;;8.95;;
81382;SDS011;70834;37.534;-122.308;2023-09-30T13:42:14;37.90;;;10.48;;
81382;SDS011;70834;37.534;-122.308;2023-09-30T13:44:38;33.90;;;10.27;;
81382;SDS011;70834;37.534;-122.308;2023-09-30T13:46:59;41.42;;;10.43;;
81382;SDS011;70834;37.534;-122.308;2023-09-30T13:49:20;28.35;;;10.13;;
81382;SDS011;70834;37.534;-122.308;2023-09-30T13:51:42;34.38;;;10.13;;
81382;SDS011;70834;37.534;-122.308;2023-09-30T13:54:03;26.77;;;9.32;;
81382;SDS011;70834;37.534;-122.308;2023-09-30T13:56:27;25.88;;;9.30;;
81382;SDS011;70834;37.534;-122.308;2023-09-30T13:58:50;30.60;;;9.20;;
81382;SDS011;70834;37.534;-122.308;2023-09-30T14:01:15;28.45;;;8.98;;
81382;SDS011;70834;37.534;-122.308;2023-09-30T14:03:37;28.88;;;8.82;;
81382;SDS011;70834;37.534;-122.308;2023-09-30T14:06:01;23.02;;;8.88;;
81382;SDS011;70834;37.534;-122.308;2023-09-30T14:08:22;29.75;;;8.85;;
81382;SDS011;70834;37.534;-122.308;2023-09-30T14:10:44;22.77;;;8.23;;
81382;SDS011;70834;37.534;-122.308;2023-09-30T14:13:05;28.35;;;8.93;;
81382;SDS011;70834;37.534;-122.308;2023-09-30T14:15:27;25.08;;;9.30;;
81382;SDS011;70834;37.534;-122.308;2023-09-30T14:17:49;21.45;;;7.30;;